Joes Pond, Vermont
Current Conditions -  °F | °C
As of 3:55 AM on Friday 28 Nov 2014 (Local Time) from KCDA Reporting Station
Light Snow Light Snow  
Wind Chill: 22°   Ceiling: 2600
Heat Index: 22°   Visibility: 3mi
Dew Point: 20°   Wind: 3mph
Humidity: 89%   Direction: 250°WSW
Pressure: 29.98"   Gusts: NA
Location:  44.4635°N, 72.2231°W
Report Text: KCDA 280855Z AUTO 25003KT 3SM -SN SCT019 BKN026 OVC080 M05/M07 A2998 RMK AO2 T10531068
Loading
Personal Weather Stations






























Interactive Weather Map New forecast layout! Learn more

10-Day Weather Forecast

Advertisements
Track Severe Weather on mobile